CYAZ/YAZ METAR and TAF weather

Enter ICAO airport designator
Station Type Date Time Source
CYAZ METAR 2019/02/23 17:00 UTC NOAA

CYAZ 231700Z 08005KT 15SM FEW016 BKN024TCU BKN049 02/02 A3002 RMK SC2TCU3SC2 SLP168


Station Type Date Time Source
CYAZ Decoded METAR 2019/02/23 17:00 UTC NOAA

Tofino Airport, Canada (CYAZ) 49-05N 125-46W
Feb 23, 2019 - 12:00 PM EST / 2019.02.23 1700 UTC
Wind: from the E (080 degrees) at 6 MPH (5 KT):0
Visibility: 15 mile(s):0
Sky conditions: mostly cloudy
Weather: Towering cumulus clouds observed
Temperature: 35 F (2 C)
Windchill: 30 F (-1 C):1
Dew Point: 35 F (2 C)
Relative Humidity: 100%
Pressure (altimeter): 30.02 in. Hg (1016 hPa)
ob: CYAZ 231700Z 08005KT 15SM FEW016 BKN024TCU BKN049 02/02 A3002 RMK SC2TCU3SC2 SLP168
cycle: 17

Station Type Date Time Source
CYAZ TAF 2019/02/23 18:00 UTC NOAA

TAF CYAZ 231738Z 2318/2401 07005KT P6SM FEW005 SCT010 BKN025 BKN070
TEMPO 2318/2401 5SM -SHRA BR BKN020
RMK NXT FCST WILL BE ISSUED AT 241645Z


Example: see airport list